Time;durP1;ratioP1;P1;durP2;ratioP2;P2;SDS_P1;SDS_P2;PMS_P1;PMS_P2;Temp;Humidity;BMP_temperature;BMP_pressure;BME280_temperature;BME280_humidity;BME280_pressure;Samples;Min_cycle;Max_cycle;Signal;HPM_P1;HPM_P2
2023/05/20 00:01:58;;;;;;;0.00;0.00;;;12.00;78.70;;;;;;5013555;28;20045;-63
2023/05/20 00:04:24;;;;;;;0.00;0.00;;;12.00;78.70;;;;;;5013455;28;20069;-63
2023/05/20 00:06:49;;;;;;;0.00;0.00;;;12.00;78.80;;;;;;5013358;28;20487;-63
2023/05/20 00:09:16;;;;;;;0.00;0.00;;;12.00;78.80;;;;;;5012374;28;20049;-62
2023/05/20 00:11:41;;;;;;;0.20;0.20;;;12.00;78.90;;;;;;5014331;28;20053;-63
2023/05/20 00:14:07;;;;;;;0.00;0.00;;;12.00;79.00;;;;;;5013195;28;20104;-64
2023/05/20 00:16:33;;;;;;;0.00;0.00;;;12.00;79.00;;;;;;5014004;28;20046;-63
2023/05/20 00:18:58;;;;;;;3.72;0.73;;;12.00;79.20;;;;;;5014032;28;20065;-63
2023/05/20 00:21:24;;;;;;;0.00;0.00;;;12.00;79.20;;;;;;5014259;28;20045;-63
2023/05/20 00:23:49;;;;;;;0.00;0.00;;;12.00;79.30;;;;;;5014085;28;20499;-63
2023/05/20 00:26:15;;;;;;;0.00;0.00;;;12.00;79.40;;;;;;4996344;28;20041;-63
2023/05/20 00:28:41;;;;;;;0.03;0.03;;;11.90;79.50;;;;;;5013714;28;20111;-63
2023/05/20 00:31:06;;;;;;;0.00;0.00;;;11.90;79.60;;;;;;5011672;28;20153;-64
2023/05/20 00:33:32;;;;;;;0.25;0.25;;;11.90;79.60;;;;;;5012642;28;20077;-63
2023/05/20 00:35:58;;;;;;;0.10;0.10;;;11.90;79.70;;;;;;5012836;28;20414;-63
2023/05/20 00:38:23;;;;;;;0.03;0.03;;;11.90;79.70;;;;;;5012796;28;20042;-63
2023/05/20 00:40:49;;;;;;;0.10;0.10;;;11.90;79.80;;;;;;5012507;28;20141;-64
2023/05/20 00:43:14;;;;;;;0.00;0.00;;;11.90;79.90;;;;;;5012551;28;20050;-63
2023/05/20 00:45:40;;;;;;;0.20;0.20;;;11.90;79.90;;;;;;5012641;28;20050;-63
2023/05/20 00:48:06;;;;;;;0.00;0.00;;;11.90;80.00;;;;;;5012401;28;20053;-63
2023/05/20 00:50:32;;;;;;;0.00;0.00;;;11.90;80.10;;;;;;5012398;28;20414;-63
2023/05/20 00:52:58;;;;;;;0.10;0.10;;;11.90;80.20;;;;;;5012300;28;20120;-63
2023/05/20 00:55:24;;;;;;;0.00;0.00;;;11.90;80.20;;;;;;5012620;28;20046;-63
2023/05/20 00:57:51;;;;;;;0.00;0.00;;;11.90;80.30;;;;;;5012392;28;20061;-63
2023/05/20 01:00:17;;;;;;;0.00;0.00;;;11.90;80.40;;;;;;5012162;28;20042;-63
2023/05/20 01:02:43;;;;;;;0.00;0.00;;;11.80;80.50;;;;;;5012810;28;20042;-63
2023/05/20 01:05:08;;;;;;;0.00;0.00;;;11.90;80.50;;;;;;5013408;28;20042;-63
2023/05/20 01:07:34;;;;;;;0.63;0.63;;;11.80;80.60;;;;;;5012282;28;20053;-63
2023/05/20 01:10:00;;;;;;;0.20;0.20;;;11.80;80.70;;;;;;5011798;28;20567;-62
2023/05/20 01:12:30;;;;;;;0.00;0.00;;;11.80;80.70;;;;;;5012111;28;20130;-63
2023/05/20 01:15:07;;;;;;;1.05;0.73;;;11.80;80.70;;;;;;5011964;28;20132;-63
2023/05/20 01:17:38;;;;;;;0.00;0.00;;;11.70;80.70;;;;;;5011809;28;20570;-64
2023/05/20 01:20:08;;;;;;;0.00;0.00;;;11.80;80.80;;;;;;5012274;28;20042;-63
2023/05/20 01:22:54;;;;;;;0.00;0.00;;;11.70;80.90;;;;;;5011752;28;20124;-63
2023/05/20 01:25:20;;;;;;;0.00;0.00;;;11.80;80.90;;;;;;5011940;28;20077;-63
2023/05/20 01:27:47;;;;;;;0.00;0.00;;;11.80;80.90;;;;;;5011817;28;20045;-63
2023/05/20 01:30:14;;;;;;;0.20;0.20;;;11.80;81.00;;;;;;5011315;28;20732;-63
2023/05/20 01:32:48;;;;;;;0.00;0.00;;;11.80;81.00;;;;;;5011506;28;20067;-62
2023/05/20 01:35:15;;;;;;;0.00;0.00;;;11.70;81.10;;;;;;5011677;28;20100;-63
2023/05/20 01:37:41;;;;;;;0.10;0.10;;;11.60;81.20;;;;;;5011681;28;20046;-62
2023/05/20 01:40:08;;;;;;;0.05;0.05;;;11.70;81.30;;;;;;5011361;28;20034;-63
2023/05/20 01:42:35;;;;;;;0.00;0.00;;;11.70;81.30;;;;;;5010073;28;20542;-63
2023/05/20 01:45:01;;;;;;;0.00;0.00;;;11.70;81.50;;;;;;5011470;28;20049;-63
2023/05/20 01:47:27;;;;;;;0.00;0.00;;;11.70;81.40;;;;;;5011500;28;20077;-63
2023/05/20 01:49:53;;;;;;;0.55;0.55;;;11.60;81.50;;;;;;5011170;28;20932;-63
2023/05/20 01:52:21;;;;;;;0.00;0.00;;;11.70;81.60;;;;;;5011284;28;20050;-63
2023/05/20 01:54:50;;;;;;;0.10;0.10;;;11.60;81.60;;;;;;5010306;28;20046;-63
2023/05/20 01:57:20;;;;;;;0.10;0.10;;;11.60;81.60;;;;;;5011192;28;20042;-64
2023/05/20 01:59:46;;;;;;;0.00;0.00;;;11.60;81.80;;;;;;5011276;28;20205;-63
2023/05/20 02:02:12;;;;;;;0.05;0.05;;;11.60;81.70;;;;;;5011128;28;20129;-63
2023/05/20 02:04:38;;;;;;;0.00;0.00;;;11.70;81.80;;;;;;5010034;28;20061;-63
2023/05/20 02:07:03;;;;;;;0.10;0.10;;;11.60;81.80;;;;;;5011220;28;20050;-63
2023/05/20 02:09:29;;;;;;;0.43;0.43;;;11.70;81.80;;;;;;5011021;28;20050;-63
2023/05/20 02:11:55;;;;;;;0.80;0.80;;;11.60;81.90;;;;;;5011245;28;20045;-63
2023/05/20 02:14:20;;;;;;;0.00;0.00;;;11.60;81.90;;;;;;5010548;28;20403;-63
2023/05/20 02:16:46;;;;;;;0.05;0.05;;;11.60;81.90;;;;;;5011056;28;20100;-63
2023/05/20 02:19:12;;;;;;;0.00;0.00;;;11.60;81.90;;;;;;4993315;28;20053;-63
2023/05/20 02:21:41;;;;;;;0.17;0.17;;;11.60;81.80;;;;;;5009329;28;20129;-63
2023/05/20 02:24:07;;;;;;;0.20;0.20;;;11.60;81.90;;;;;;5010576;28;20038;-63
2023/05/20 02:26:35;;;;;;;0.00;0.00;;;11.60;81.90;;;;;;5010671;28;20196;-63
2023/05/20 02:29:01;;;;;;;0.00;0.00;;;11.60;81.80;;;;;;5010922;28;20046;-63
2023/05/20 02:31:26;;;;;;;0.30;0.30;;;11.60;81.80;;;;;;5010055;28;20181;-63
2023/05/20 02:33:52;;;;;;;0.00;0.00;;;11.60;81.80;;;;;;5010833;28;20053;-63
2023/05/20 02:36:18;;;;;;;0.30;0.30;;;11.60;81.80;;;;;;5010398;28;20046;-64
2023/05/20 02:38:43;;;;;;;0.13;0.13;;;11.60;81.80;;;;;;5010654;28;20446;-63
2023/05/20 02:41:09;;;;;;;0.00;0.00;;;11.60;81.80;;;;;;5010776;28;20046;-63
2023/05/20 02:43:35;;;;;;;0.00;0.00;;;11.60;81.70;;;;;;5010059;28;20099;-63
2023/05/20 02:46:01;;;;;;;0.00;0.00;;;11.60;81.70;;;;;;5010476;28;20104;-64
2023/05/20 02:48:27;;;;;;;0.30;0.30;;;11.60;81.70;;;;;;5010335;28;20509;-63
2023/05/20 02:50:53;;;;;;;0.00;0.00;;;11.60;81.70;;;;;;5009220;28;20058;-63
2023/05/20 02:53:18;;;;;;;0.10;0.10;;;11.50;81.70;;;;;;5009752;28;20056;-63
2023/05/20 02:55:46;;;;;;;0.10;0.10;;;11.60;81.70;;;;;;5009133;28;20046;-63
2023/05/20 02:58:12;;;;;;;0.00;0.00;;;11.60;81.60;;;;;;5009011;28;20042;-63
2023/05/20 03:00:39;;;;;;;0.10;0.10;;;11.50;81.60;;;;;;5008639;28;20042;-62
2023/05/20 03:03:12;;;;;;;0.10;0.10;;;11.50;81.60;;;;;;5010131;28;20532;-63
2023/05/20 03:05:38;;;;;;;0.00;0.00;;;11.50;81.60;;;;;;5008685;28;20078;-63
2023/05/20 03:08:08;;;;;;;0.00;0.00;;;11.50;81.50;;;;;;5009901;28;20439;-62
2023/05/20 03:10:35;;;;;;;0.00;0.00;;;11.50;81.60;;;;;;5009939;28;20049;-63
2023/05/20 03:13:01;;;;;;;0.30;0.30;;;11.50;81.50;;;;;;5010109;28;20038;-63
2023/05/20 03:15:27;;;;;;;0.00;0.00;;;11.50;81.50;;;;;;5010034;28;20044;-63
2023/05/20 03:17:52;;;;;;;0.08;0.08;;;11.50;81.50;;;;;;5009832;28;20491;-63
2023/05/20 03:20:19;;;;;;;0.00;0.00;;;11.50;81.50;;;;;;5009637;28;20499;-63
2023/05/20 03:22:44;;;;;;;0.00;0.00;;;11.50;81.40;;;;;;5009756;28;20100;-63
2023/05/20 03:25:10;;;;;;;0.00;0.00;;;11.50;81.40;;;;;;5009796;28;20073;-63
2023/05/20 03:27:36;;;;;;;0.10;0.10;;;11.40;81.40;;;;;;5009348;28;20045;-64
2023/05/20 03:30:03;;;;;;;0.00;0.00;;;11.50;81.40;;;;;;5010400;28;20053;-63
2023/05/20 03:32:29;;;;;;;0.00;0.00;;;11.40;81.40;;;;;;5010683;28;20056;-63
2023/05/20 03:34:56;;;;;;;0.05;0.05;;;11.50;81.30;;;;;;5010793;28;20507;-62
2023/05/20 03:37:22;;;;;;;0.00;0.00;;;11.40;81.30;;;;;;5010802;28;20093;-63
2023/05/20 03:39:48;;;;;;;0.00;0.00;;;11.40;81.20;;;;;;5010763;28;20069;-63
2023/05/20 03:42:13;;;;;;;0.00;0.00;;;11.40;81.20;;;;;;5010034;28;20828;-63
2023/05/20 03:44:39;;;;;;;0.00;0.00;;;11.40;81.20;;;;;;5009476;28;20045;-63
2023/05/20 03:47:05;;;;;;;0.10;0.10;;;11.40;81.20;;;;;;5010838;28;20042;-63
2023/05/20 03:49:30;;;;;;;0.80;0.73;;;11.40;81.10;;;;;;5010345;28;20057;-63
2023/05/20 03:51:56;;;;;;;0.00;0.00;;;11.30;81.00;;;;;;5009365;28;20042;-63
2023/05/20 03:54:22;;;;;;;0.00;0.00;;;11.40;81.00;;;;;;5008085;28;20038;-63
2023/05/20 03:56:48;;;;;;;0.00;0.00;;;11.40;81.00;;;;;;5009572;28;20042;-63
2023/05/20 03:59:14;;;;;;;0.08;0.08;;;11.40;81.00;;;;;;5009532;28;20060;-63
2023/05/20 04:01:39;;;;;;;0.35;0.35;;;11.30;81.00;;;;;;5009431;28;20050;-63
2023/05/20 04:04:05;;;;;;;0.10;0.10;;;11.30;81.00;;;;;;5009124;28;20050;-63
2023/05/20 04:06:31;;;;;;;0.00;0.00;;;11.40;80.90;;;;;;5009476;28;20042;-63
2023/05/20 04:08:57;;;;;;;0.00;0.00;;;11.30;80.90;;;;;;5009365;28;20396;-63
2023/05/20 04:11:23;;;;;;;0.00;0.00;;;11.30;80.80;;;;;;5009333;28;20053;-63
2023/05/20 04:13:48;;;;;;;0.32;0.32;;;11.40;80.80;;;;;;5009075;28;20069;-63
2023/05/20 04:16:14;;;;;;;0.00;0.00;;;11.40;80.70;;;;;;5009261;28;20533;-63
2023/05/20 04:18:40;;;;;;;0.00;0.00;;;11.40;80.60;;;;;;5009515;28;20046;-63
2023/05/20 04:21:07;;;;;;;0.00;0.00;;;11.40;80.50;;;;;;5009277;28;20042;-63
2023/05/20 04:23:32;;;;;;;0.00;0.00;;;11.50;80.50;;;;;;5008945;28;20053;-63
2023/05/20 04:26:01;;;;;;;0.00;0.00;;;11.40;80.30;;;;;;5009241;28;20041;-63
2023/05/20 04:28:30;;;;;;;0.00;0.00;;;11.50;80.20;;;;;;5010680;28;20073;-63
2023/05/20 04:30:59;;;;;;;0.10;0.10;;;11.50;80.10;;;;;;5012358;28;20498;-63
2023/05/20 04:33:26;;;;;;;0.10;0.10;;;11.50;79.90;;;;;;5044129;28;20093;-63
2023/05/20 04:35:51;;;;;;;0.00;0.00;;;11.50;79.80;;;;;;5012804;28;20048;-63
2023/05/20 04:38:17;;;;;;;0.00;0.00;;;11.60;79.70;;;;;;5012644;28;20129;-64
2023/05/20 04:40:42;;;;;;;0.43;0.43;;;11.60;79.60;;;;;;5012765;28;20495;-63
2023/05/20 04:43:08;;;;;;;0.00;0.00;;;11.60;79.40;;;;;;5012751;28;20048;-63
2023/05/20 04:45:34;;;;;;;0.00;0.00;;;11.60;79.30;;;;;;5012469;28;20042;-63
2023/05/20 04:48:00;;;;;;;0.00;0.00;;;11.60;79.30;;;;;;5012243;28;20123;-63
2023/05/20 04:50:26;;;;;;;0.00;0.00;;;11.60;79.20;;;;;;5012034;28;20515;-63
2023/05/20 04:52:51;;;;;;;0.00;0.00;;;11.60;79.10;;;;;;5012426;28;20054;-63
2023/05/20 04:55:18;;;;;;;0.00;0.00;;;11.60;79.00;;;;;;5012147;28;20038;-63
2023/05/20 04:57:44;;;;;;;0.00;0.00;;;11.60;78.90;;;;;;5012089;28;20050;-63
2023/05/20 05:00:11;;;;;;;0.00;0.00;;;11.70;78.80;;;;;;5012071;28;20038;-63
2023/05/20 05:02:37;;;;;;;0.00;0.00;;;11.60;78.50;;;;;;5012267;28;20112;-63
2023/05/20 05:05:03;;;;;;;0.00;0.00;;;11.60;78.50;;;;;;5012226;28;20491;-63
2023/05/20 05:07:28;;;;;;;0.10;0.10;;;11.60;78.40;;;;;;5011102;28;20045;-63
2023/05/20 05:09:54;;;;;;;0.00;0.00;;;11.60;78.30;;;;;;5012000;28;20494;-62
2023/05/20 05:12:19;;;;;;;0.00;0.00;;;11.60;78.40;;;;;;5011882;28;20038;-63
2023/05/20 05:14:45;;;;;;;0.03;0.03;;;11.60;78.30;;;;;;5011929;28;20117;-62
2023/05/20 05:17:10;;;;;;;0.00;0.00;;;11.60;78.20;;;;;;5012792;28;20049;-62
2023/05/20 05:19:36;;;;;;;0.00;0.00;;;11.50;78.20;;;;;;5011987;28;20054;-63
2023/05/20 05:22:02;;;;;;;0.00;0.00;;;11.50;78.10;;;;;;5011553;28;20093;-62
2023/05/20 05:24:27;;;;;;;0.00;0.00;;;11.50;78.10;;;;;;4994315;28;20081;-63
2023/05/20 05:26:54;;;;;;;0.00;0.00;;;11.50;78.10;;;;;;5011920;28;20042;-63
2023/05/20 05:29:19;;;;;;;0.05;0.05;;;11.40;78.00;;;;;;5011447;28;20048;-63
2023/05/20 05:31:45;;;;;;;0.00;0.00;;;11.40;78.10;;;;;;5010210;28;20049;-63
2023/05/20 05:34:11;;;;;;;0.00;0.00;;;11.40;78.10;;;;;;5011639;28;20048;-63
2023/05/20 05:36:38;;;;;;;0.00;0.00;;;11.50;78.10;;;;;;5011483;28;20177;-63
2023/05/20 05:39:04;;;;;;;0.00;0.00;;;11.50;78.10;;;;;;5011019;28;20050;-64
2023/05/20 05:41:30;;;;;;;0.00;0.00;;;11.60;78.10;;;;;;5010894;28;20076;-63
2023/05/20 05:43:55;;;;;;;0.00;0.00;;;11.60;77.90;;;;;;5011151;28;20054;-63
2023/05/20 05:46:21;;;;;;;0.00;0.00;;;11.60;77.90;;;;;;5011541;28;20045;-63
2023/05/20 05:48:49;;;;;;;0.00;0.00;;;11.70;77.70;;;;;;5011044;28;20151;-64
2023/05/20 05:51:14;;;;;;;0.98;0.90;;;11.70;77.70;;;;;;5011269;28;20062;-63
2023/05/20 05:53:40;;;;;;;0.00;0.00;;;11.80;77.60;;;;;;5011109;28;20118;-63
2023/05/20 05:56:06;;;;;;;0.00;0.00;;;11.90;77.30;;;;;;5011172;28;20048;-63
2023/05/20 05:58:32;;;;;;;0.03;0.03;;;12.00;77.10;;;;;;5011222;28;20526;-63
2023/05/20 06:00:57;;;;;;;0.00;0.00;;;12.10;77.00;;;;;;5011433;28;20040;-64
2023/05/20 06:03:23;;;;;;;0.00;0.00;;;12.10;77.00;;;;;;5010851;28;20068;-63
2023/05/20 06:05:49;;;;;;;0.00;0.00;;;12.20;76.90;;;;;;5010971;28;20495;-63
2023/05/20 06:08:15;;;;;;;0.00;0.00;;;12.30;76.90;;;;;;5011011;28;20049;-63
2023/05/20 06:10:41;;;;;;;0.05;0.05;;;12.30;76.50;;;;;;5009739;28;20045;-63
2023/05/20 06:13:06;;;;;;;0.00;0.00;;;12.40;76.30;;;;;;5010968;28;20049;-63
2023/05/20 06:15:32;;;;;;;0.00;0.00;;;12.40;76.30;;;;;;5010886;28;20042;-63
2023/05/20 06:17:57;;;;;;;0.00;0.00;;;12.40;76.20;;;;;;5010574;28;20132;-63
2023/05/20 06:20:23;;;;;;;0.00;0.00;;;12.40;76.20;;;;;;5010836;28;20049;-63
2023/05/20 06:22:48;;;;;;;0.00;0.00;;;12.50;76.10;;;;;;5010720;28;20054;-63
2023/05/20 06:25:14;;;;;;;0.00;0.00;;;12.60;76.10;;;;;;5010538;28;20046;-63
2023/05/20 06:27:40;;;;;;;0.00;0.00;;;12.60;76.00;;;;;;5010485;28;20776;-63
2023/05/20 06:30:06;;;;;;;0.00;0.00;;;12.60;75.60;;;;;;5010839;28;20046;-63
2023/05/20 06:32:31;;;;;;;0.00;0.00;;;12.70;75.60;;;;;;5010453;28;20049;-63
2023/05/20 06:34:57;;;;;;;0.00;0.00;;;12.70;75.50;;;;;;5010432;28;20049;-63
2023/05/20 06:37:23;;;;;;;0.00;0.00;;;12.70;75.50;;;;;;5011293;28;20049;-63
2023/05/20 06:39:52;;;;;;;0.00;0.00;;;12.60;75.50;;;;;;5011282;28;20057;-63
2023/05/20 06:42:19;;;;;;;0.00;0.00;;;12.60;75.50;;;;;;5010576;28;20046;-63
2023/05/20 06:44:44;;;;;;;0.00;0.00;;;12.60;75.20;;;;;;5010328;28;20125;-63
2023/05/20 06:47:10;;;;;;;0.00;0.00;;;12.60;75.10;;;;;;5010732;28;20120;-63
2023/05/20 06:49:36;;;;;;;0.00;0.00;;;12.80;74.90;;;;;;5010067;28;20600;-63
2023/05/20 06:52:01;;;;;;;0.00;0.00;;;12.90;74.90;;;;;;5010036;28;20117;-63
2023/05/20 06:54:27;;;;;;;0.00;0.00;;;13.00;74.80;;;;;;5010124;28;20118;-63
2023/05/20 06:56:52;;;;;;;0.00;0.00;;;13.10;74.30;;;;;;5010222;28;20073;-62
2023/05/20 06:59:18;;;;;;;0.00;0.00;;;13.20;73.40;;;;;;5009758;28;20542;-63
2023/05/20 07:01:44;;;;;;;0.00;0.00;;;13.30;73.30;;;;;;5010184;28;20049;-63
2023/05/20 07:04:09;;;;;;;0.25;0.25;;;13.40;73.00;;;;;;5008821;28;20464;-63
2023/05/20 07:06:35;;;;;;;0.00;0.00;;;13.40;72.90;;;;;;5010160;28;20067;-62
2023/05/20 07:09:00;;;;;;;0.00;0.00;;;13.60;72.60;;;;;;5009815;28;20056;-63
2023/05/20 07:11:26;;;;;;;0.10;0.10;;;13.60;72.50;;;;;;5009967;28;20050;-63
2023/05/20 07:13:52;;;;;;;0.00;0.00;;;13.70;72.40;;;;;;5009750;28;20073;-63
2023/05/20 07:16:17;;;;;;;0.00;0.00;;;13.70;72.00;;;;;;5008661;28;20392;-62
2023/05/20 07:18:43;;;;;;;0.00;0.00;;;13.90;72.00;;;;;;5009698;28;20060;-63
2023/05/20 07:21:09;;;;;;;0.10;0.10;;;13.90;71.90;;;;;;5010008;28;20046;-63
2023/05/20 07:23:34;;;;;;;0.00;0.00;;;14.10;71.20;;;;;;5009546;28;20186;-63
2023/05/20 07:26:00;;;;;;;0.00;0.00;;;14.10;71.20;;;;;;5008459;28;20487;-63
2023/05/20 07:28:25;;;;;;;0.00;0.00;;;14.20;70.20;;;;;;5009651;28;20073;-63
2023/05/20 07:30:51;;;;;;;0.00;0.00;;;14.30;70.30;;;;;;5009882;28;20073;-63
2023/05/20 07:33:17;;;;;;;0.00;0.00;;;14.40;69.60;;;;;;5009608;28;20096;-63
2023/05/20 07:35:43;;;;;;;0.00;0.00;;;14.50;68.40;;;;;;5009552;28;20080;-63
2023/05/20 07:38:11;;;;;;;0.00;0.00;;;14.50;67.70;;;;;;5008235;28;20080;-63
2023/05/20 07:40:39;;;;;;;0.00;0.00;;;14.60;67.70;;;;;;5009394;28;20072;-62
2023/05/20 07:43:06;;;;;;;0.00;0.00;;;14.60;66.50;;;;;;5009533;28;20042;-63
2023/05/20 07:45:33;;;;;;;0.10;0.10;;;14.60;65.60;;;;;;5009686;28;20399;-63
2023/05/20 07:47:59;;;;;;;0.10;0.10;;;14.60;66.20;;;;;;5009673;28;20069;-63
2023/05/20 07:50:25;;;;;;;0.00;0.00;;;14.60;66.70;;;;;;5008889;28;20494;-63
2023/05/20 07:52:50;;;;;;;0.00;0.00;;;14.70;66.40;;;;;;5009608;28;20108;-62
2023/05/20 07:55:17;;;;;;;0.00;0.00;;;14.80;66.10;;;;;;5009580;28;20136;-63
2023/05/20 07:57:42;;;;;;;0.00;0.00;;;14.80;66.60;;;;;;5009530;28;20119;-62
2023/05/20 08:00:10;;;;;;;0.10;0.10;;;14.80;66.60;;;;;;5009551;28;20081;-62
2023/05/20 08:02:36;;;;;;;0.00;0.00;;;14.90;66.30;;;;;;5009399;28;20148;-63
2023/05/20 08:05:01;;;;;;;0.13;0.13;;;15.00;66.40;;;;;;5013509;28;20501;-63
2023/05/20 08:07:27;;;;;;;0.30;0.28;;;15.00;66.20;;;;;;5013245;28;20053;-63
2023/05/20 08:09:52;;;;;;;0.10;0.10;;;15.10;66.30;;;;;;5013105;28;20514;-62
2023/05/20 08:12:18;;;;;;;0.00;0.00;;;15.10;66.30;;;;;;5013440;28;20437;-63
2023/05/20 08:14:44;;;;;;;0.00;0.00;;;15.20;65.30;;;;;;5013203;28;20046;-62
2023/05/20 08:17:10;;;;;;;0.00;0.00;;;15.30;64.40;;;;;;5012062;28;20494;-63
2023/05/20 08:19:35;;;;;;;0.00;0.00;;;15.40;63.70;;;;;;5013075;28;20788;-62
2023/05/20 08:22:01;;;;;;;0.00;0.00;;;15.40;64.40;;;;;;5013113;28;20038;-62
2023/05/20 08:24:27;;;;;;;0.00;0.00;;;15.40;64.40;;;;;;5012757;28;20042;-62
2023/05/20 08:26:52;;;;;;;3.33;0.45;;;15.50;64.60;;;;;;5013205;28;20123;-63
2023/05/20 08:29:18;;;;;;;0.00;0.00;;;15.60;63.50;;;;;;5012622;28;20050;-63
2023/05/20 08:31:43;;;;;;;0.00;0.00;;;15.60;63.50;;;;;;5012836;28;20125;-63
2023/05/20 08:34:09;;;;;;;0.00;0.00;;;15.60;63.90;;;;;;5012588;28;20041;-63
2023/05/20 08:36:35;;;;;;;0.00;0.00;;;15.60;64.30;;;;;;5013069;28;20038;-63
2023/05/20 08:39:00;;;;;;;0.00;0.00;;;15.70;63.90;;;;;;5012570;28;20046;-62
2023/05/20 08:41:26;;;;;;;0.00;0.00;;;15.80;63.50;;;;;;5012711;28;20388;-63
2023/05/20 08:43:53;;;;;;;0.00;0.00;;;15.90;64.00;;;;;;5011542;28;20046;-63
2023/05/20 08:46:20;;;;;;;0.00;0.00;;;15.90;64.50;;;;;;5012255;28;20046;-62
2023/05/20 08:48:46;;;;;;;0.00;0.00;;;16.00;64.60;;;;;;5011780;28;20057;-62
2023/05/20 08:51:14;;;;;;;0.28;0.25;;;16.00;63.90;;;;;;5011427;28;20046;-62
2023/05/20 08:53:40;;;;;;;0.00;0.00;;;16.10;63.90;;;;;;5011264;28;20050;-63
2023/05/20 08:56:08;;;;;;;0.00;0.00;;;16.10;64.30;;;;;;5010853;28;20049;-62
2023/05/20 08:58:34;;;;;;;0.00;0.00;;;16.10;64.50;;;;;;5011319;28;20042;-63
2023/05/20 09:00:59;;;;;;;0.00;0.00;;;16.10;64.60;;;;;;5011010;28;20049;-63
2023/05/20 09:03:25;;;;;;;0.00;0.00;;;16.10;64.20;;;;;;5010991;28;20049;-63
2023/05/20 09:05:52;;;;;;;0.00;0.00;;;16.20;64.00;;;;;;5011192;28;20046;-62
2023/05/20 09:08:18;;;;;;;0.00;0.00;;;16.20;64.30;;;;;;5010808;28;20415;-62
2023/05/20 09:10:44;;;;;;;0.00;0.00;;;16.30;63.20;;;;;;5010754;28;20061;-63
2023/05/20 09:13:10;;;;;;;0.00;0.00;;;16.40;63.40;;;;;;5010898;28;20034;-62
2023/05/20 09:15:36;;;;;;;0.00;0.00;;;16.40;63.50;;;;;;5010980;28;20096;-63
2023/05/20 09:18:03;;;;;;;0.00;0.00;;;16.40;63.00;;;;;;5010815;28;20041;-62
2023/05/20 09:20:31;;;;;;;0.00;0.00;;;16.50;62.60;;;;;;5009652;28;20053;-63
2023/05/20 09:23:01;;;;;;;0.00;0.00;;;16.60;62.40;;;;;;5010705;28;20037;-63
2023/05/20 09:25:28;;;;;;;0.00;0.00;;;16.60;62.20;;;;;;5010826;28;20499;-62
2023/05/20 09:27:54;;;;;;;0.00;0.00;;;16.60;61.60;;;;;;5011027;28;20104;-63
2023/05/20 09:30:21;;;;;;;0.00;0.00;;;16.60;61.50;;;;;;5010291;28;20148;-63
2023/05/20 09:32:57;;;;;;;0.00;0.00;;;16.60;61.70;;;;;;5009517;28;20056;-62
2023/05/20 09:35:23;;;;;;;0.00;0.00;;;16.60;62.40;;;;;;5010292;28;20038;-62
2023/05/20 09:37:54;;;;;;;0.00;0.00;;;16.60;62.10;;;;;;5009541;28;20050;-62
2023/05/20 09:40:23;;;;;;;0.00;0.00;;;16.80;62.00;;;;;;5010736;28;20087;-62
2023/05/20 09:42:55;;;;;;;0.00;0.00;;;16.80;61.40;;;;;;5042484;28;20072;-62
2023/05/20 09:45:23;;;;;;;0.00;0.00;;;16.80;61.10;;;;;;5010253;28;20052;-63
2023/05/20 09:47:50;;;;;;;0.00;0.00;;;16.80;61.80;;;;;;5010200;28;20050;-63
2023/05/20 09:50:16;;;;;;;0.00;0.00;;;16.90;62.10;;;;;;4974947;28;1043090;-62
2023/05/20 09:52:43;;;;;;;0.00;0.00;;;17.00;61.80;;;;;;5011495;28;20550;-63
2023/05/20 09:55:09;;;;;;;0.00;0.00;;;17.10;61.30;;;;;;5011526;28;20038;-63
2023/05/20 09:57:35;;;;;;;0.00;0.00;;;17.10;60.90;;;;;;5011530;28;20080;-63
2023/05/20 10:00:04;;;;;;;0.00;0.00;;;17.10;60.70;;;;;;5011275;28;20041;-62
2023/05/20 10:02:30;;;;;;;5.45;1.35;;;17.10;60.90;;;;;;5010749;28;20081;-62
2023/05/20 10:04:58;;;;;;;0.00;0.00;;;17.20;60.60;;;;;;5011323;28;20548;-63
2023/05/20 10:07:45;;;;;;;0.08;0.08;;;17.30;60.10;;;;;;5011069;28;20050;-62
2023/05/20 10:10:44;;;;;;;0.00;0.00;;;17.30;59.60;;;;;;5009871;28;20100;-63
2023/05/20 10:13:28;;;;;;;0.00;0.00;;;17.30;60.20;;;;;;5010678;28;20046;-63
2023/05/20 10:16:23;;;;;;;0.10;0.10;;;17.40;60.00;;;;;;5042972;28;20073;-61
2023/05/20 10:19:17;;;;;;;0.00;0.00;;;17.40;60.50;;;;;;5004568;28;20064;-63
2023/05/20 10:21:42;;;;;;;0.00;0.00;;;17.50;60.40;;;;;;5007729;28;20053;-63
2023/05/20 10:24:09;;;;;;;1.20;1.10;;;17.50;60.50;;;;;;5010617;28;20548;-63
2023/05/20 10:26:40;;;;;;;0.10;0.10;;;17.60;60.00;;;;;;5010102;28;20053;-62
2023/05/20 10:29:19;;;;;;;2.13;0.77;;;17.60;60.40;;;;;;5010631;28;20115;-62
2023/05/20 10:31:50;;;;;;;0.00;0.00;;;17.60;61.00;;;;;;5010539;28;20284;-63
2023/05/20 10:34:17;;;;;;;1.33;1.23;;;17.70;60.30;;;;;;5010653;28;20562;-63
2023/05/20 10:37:06;;;;;;;0.00;0.00;;;17.70;60.00;;;;;;5010461;28;20130;-63
2023/05/20 10:39:33;;;;;;;0.00;0.00;;;17.70;60.10;;;;;;5009908;28;20088;-62
2023/05/20 10:42:07;;;;;;;0.00;0.00;;;17.70;60.40;;;;;;5010430;28;20045;-63
2023/05/20 10:44:46;;;;;;;0.00;0.00;;;17.80;59.80;;;;;;5009305;28;20048;-63
2023/05/20 10:47:12;;;;;;;0.10;0.10;;;17.80;60.20;;;;;;5010691;28;20116;-63
2023/05/20 10:49:45;;;;;;;0.00;0.00;;;17.80;60.30;;;;;;5010188;28;20065;-63
2023/05/20 10:52:12;;;;;;;0.00;0.00;;;17.90;60.70;;;;;;5010349;28;20049;-63
2023/05/20 10:54:46;;;;;;;0.00;0.00;;;17.90;60.80;;;;;;5009720;28;20089;-63
2023/05/20 10:57:11;;;;;;;0.00;0.00;;;17.80;60.90;;;;;;5010137;28;20052;-62
2023/05/20 10:59:37;;;;;;;0.15;0.15;;;17.80;61.10;;;;;;5010175;28;20038;-62
2023/05/20 11:02:03;;;;;;;1.27;0.95;;;17.90;60.20;;;;;;5010173;28;20046;-63
2023/05/20 11:04:29;;;;;;;0.00;0.00;;;17.80;60.10;;;;;;5009888;28;20481;-63
2023/05/20 11:06:55;;;;;;;0.00;0.00;;;17.60;60.70;;;;;;5009867;28;20056;-62
2023/05/20 11:09:22;;;;;;;0.00;0.00;;;17.60;61.00;;;;;;5009999;28;20096;-63
2023/05/20 11:11:49;;;;;;;0.00;0.00;;;17.60;61.80;;;;;;5010050;28;20507;-63
2023/05/20 11:14:16;;;;;;;0.00;0.00;;;17.50;61.70;;;;;;5010154;28;20042;-63
2023/05/20 11:16:41;;;;;;;0.00;0.00;;;17.40;62.00;;;;;;5009731;28;20045;-63
2023/05/20 11:19:08;;;;;;;0.00;0.00;;;17.30;63.20;;;;;;5009717;28;20050;-63
2023/05/20 11:21:33;;;;;;;0.00;0.00;;;17.40;63.30;;;;;;5009670;28;20484;-63
2023/05/20 11:23:59;;;;;;;0.30;0.30;;;17.60;62.90;;;;;;5009906;28;20068;-63
2023/05/20 11:26:25;;;;;;;0.00;0.00;;;17.70;63.00;;;;;;5009919;28;20033;-63
2023/05/20 11:28:51;;;;;;;0.55;0.55;;;17.80;63.00;;;;;;5009683;28;20056;-64
2023/05/20 11:31:17;;;;;;;0.20;0.20;;;18.00;62.20;;;;;;5009925;28;20124;-63
2023/05/20 11:33:43;;;;;;;0.00;0.00;;;18.00;62.10;;;;;;5009312;28;20129;-62
2023/05/20 11:36:10;;;;;;;0.10;0.10;;;18.00;62.50;;;;;;5008696;28;20144;-63
2023/05/20 11:38:35;;;;;;;0.00;0.00;;;18.10;62.10;;;;;;5008694;28;20049;-63
2023/05/20 11:41:01;;;;;;;0.15;0.15;;;18.00;62.10;;;;;;5009647;28;20042;-62
2023/05/20 11:43:26;;;;;;;0.00;0.00;;;17.90;62.90;;;;;;5009653;28;20096;-63
2023/05/20 11:45:58;;;;;;;0.00;0.00;;;18.00;63.40;;;;;;5009840;28;20123;-63
2023/05/20 11:48:24;;;;;;;;;;;18.00;62.70;;;;;;5009545;28;20065;-64
2023/05/20 11:50:51;;;;;;;0.22;0.22;;;18.10;62.60;;;;;;5009596;28;19928;-63
2023/05/20 11:53:20;;;;;;;0.00;0.00;;;18.00;62.70;;;;;;5009479;28;20049;-62
2023/05/20 11:55:57;;;;;;;0.00;0.00;;;18.10;62.50;;;;;;5009540;28;20418;-62
2023/05/20 11:58:24;;;;;;;0.00;0.00;;;18.00;62.70;;;;;;5009089;28;20049;-63
2023/05/20 12:00:50;;;;;;;0.00;0.00;;;17.90;62.60;;;;;;5009552;28;20103;-64
2023/05/20 12:03:16;;;;;;;0.00;0.00;;;17.90;62.90;;;;;;5009556;28;20060;-63
2023/05/20 12:05:42;;;;;;;0.00;0.00;;;18.10;62.70;;;;;;5008217;28;20124;-65
2023/05/20 12:08:08;;;;;;;0.00;0.00;;;18.10;62.70;;;;;;4992152;28;20034;-65
2023/05/20 12:10:36;;;;;;;0.00;0.00;;;18.20;62.10;;;;;;5009415;28;20061;-66
2023/05/20 12:13:02;;;;;;;0.00;0.00;;;18.30;61.70;;;;;;5007817;28;20037;-66
2023/05/20 12:15:28;;;;;;;2.30;1.25;;;18.30;62.10;;;;;;4992217;28;20077;-66
2023/05/20 12:17:54;;;;;;;0.00;0.00;;;18.30;61.70;;;;;;5009887;28;20132;-67
2023/05/20 12:20:22;;;;;;;0.10;0.10;;;18.30;62.50;;;;;;5009029;28;20165;-68
2023/05/20 12:22:47;;;;;;;0.00;0.00;;;18.50;62.60;;;;;;5008377;28;20054;-66
2023/05/20 12:25:18;;;;;;;0.03;0.03;;;18.60;62.50;;;;;;5008039;28;20044;-68
2023/05/20 12:27:47;;;;;;;0.00;0.00;;;18.60;62.00;;;;;;5009283;28;20046;-66
2023/05/20 12:30:18;;;;;;;0.00;0.00;;;18.60;62.00;;;;;;4991620;28;20050;-66
2023/05/20 12:32:45;;;;;;;;;;;18.60;62.30;;;;;;5009724;28;20045;-63
2023/05/20 12:35:10;;;;;;;0.65;0.55;;;18.60;61.70;;;;;;5008327;28;19925;-63
2023/05/20 12:37:40;;;;;;;0.00;0.00;;;18.60;61.20;;;;;;5009039;28;20048;-63
2023/05/20 12:40:07;;;;;;;1.15;1.05;;;18.50;60.70;;;;;;5009280;28;20096;-63
2023/05/20 12:42:36;;;;;;;0.00;0.00;;;18.40;61.40;;;;;;5008798;28;20092;-64
2023/05/20 12:45:02;;;;;;;0.80;0.73;;;18.50;61.80;;;;;;5008906;28;20038;-63
2023/05/20 12:47:29;;;;;;;0.20;0.20;;;18.60;61.80;;;;;;5009073;28;20466;-64